Time;durP1;ratioP1;P1;durP2;ratioP2;P2;SDS_P1;SDS_P2;PMS_P1;PMS_P2;Temp;Humidity;BMP_temperature;BMP_pressure;BME280_temperature;BME280_humidity;BME280_pressure;Samples;Min_cycle;Max_cycle;Signal;HPM_P1;HPM_P2
2024/01/29 00:00:30;;;;;;;41.67;27.45;;;;;;;7.77;90.54;102024.22;5006290;28;20165;-63
2024/01/29 00:02:57;;;;;;;34.60;23.40;;;;;;;7.58;91.38;102027.63;5039333;28;20411;-64
2024/01/29 00:05:25;;;;;;;38.95;24.95;;;;;;;7.57;91.95;102028.69;5005711;28;20323;-61
2024/01/29 00:07:53;;;;;;;35.58;23.75;;;;;;;7.60;92.05;102037.22;5038696;28;20053;-60
2024/01/29 00:10:22;;;;;;;34.90;24.92;;;;;;;7.69;91.42;102035.66;4989701;28;20061;-62
2024/01/29 00:12:49;;;;;;;35.85;23.50;;;;;;;7.76;91.12;102029.94;4989050;28;20050;-61
2024/01/29 00:15:17;;;;;;;36.97;24.67;;;;;;;7.66;91.53;102030.72;4988826;28;20053;-61
2024/01/29 00:17:45;;;;;;;33.50;23.27;;;;;;;7.66;91.56;102040.84;5004316;28;20061;-61
2024/01/29 00:20:13;;;;;;;35.97;24.35;;;;;;;7.88;91.01;102038.81;5006340;28;20065;-61
2024/01/29 00:22:40;;;;;;;38.03;24.65;;;;;;;7.90;90.09;102031.16;5004221;28;20050;-61
2024/01/29 00:25:08;;;;;;;36.13;24.17;;;;;;;7.68;90.61;102035.94;5001240;28;20065;-61
2024/01/29 00:27:35;;;;;;;35.97;24.83;;;;;;;7.69;91.07;102037.56;4987410;28;20319;-61
2024/01/29 00:30:04;;;;;;;34.08;23.58;;;;;;;7.65;91.01;102030.97;4993358;28;20469;-59
2024/01/29 00:32:40;;;;;;;36.10;24.92;;;;;;;7.59;90.87;102035.59;4985541;28;20058;-61
2024/01/29 00:35:08;;;;;;;39.60;24.75;;;;;;;7.59;91.40;102037.50;4993721;28;20046;-60
2024/01/29 00:37:35;;;;;;;37.80;25.63;;;;;;;7.67;90.94;102040.56;5005020;28;20072;-61
2024/01/29 00:40:04;;;;;;;35.97;25.33;;;;;;;7.54;91.18;102043.78;5006852;28;20069;-66
2024/01/29 00:42:32;;;;;;;36.50;24.88;;;;;;;7.74;91.18;102041.19;5008421;28;20054;-63
2024/01/29 00:45:00;;;;;;;37.08;24.38;;;;;;;7.58;91.06;102042.13;5007062;28;20060;-64
2024/01/29 00:47:27;;;;;;;37.13;25.08;;;;;;;7.63;91.24;102044.94;5008472;28;20050;-63
2024/01/29 00:49:57;;;;;;;36.72;24.85;;;;;;;7.65;91.10;102034.53;5005012;28;20053;-64
2024/01/29 00:52:25;;;;;;;38.17;25.58;;;;;;;7.71;90.78;102040.88;5006548;28;20045;-65
2024/01/29 00:54:53;;;;;;;34.50;24.52;;;;;;;7.70;90.30;102042.81;5006708;28;20454;-66
2024/01/29 00:57:20;;;;;;;37.58;23.88;;;;;;;7.75;90.61;102042.84;5005184;28;20695;-64
2024/01/29 00:59:48;;;;;;;35.47;23.05;;;;;;;7.69;90.16;102051.28;5006349;28;20062;-64
2024/01/29 01:02:19;;;;;;;31.23;23.48;;;;;;;7.71;90.62;102046.38;5009655;28;20189;-65
2024/01/29 01:04:47;;;;;;;37.75;23.70;;;;;;;7.69;90.51;102048.53;5038492;28;20077;-64
2024/01/29 01:07:15;;;;;;;34.15;23.40;;;;;;;7.78;90.20;102046.97;5006251;28;20049;-64
2024/01/29 01:09:42;;;;;;;33.45;22.30;;;;;;;7.80;90.00;102042.06;5005382;28;20076;-64
2024/01/29 01:12:10;;;;;;;32.40;23.13;;;;;;;7.69;89.92;102045.78;5004480;28;20050;-64
2024/01/29 01:14:38;;;;;;;33.45;23.27;;;;;;;7.82;89.91;102040.72;4999725;28;20054;-64
2024/01/29 01:17:05;;;;;;;32.95;20.98;;;;;;;7.84;89.64;102037.69;4985800;28;20054;-64
2024/01/29 01:19:33;;;;;;;32.65;22.52;;;;;;;7.94;89.00;102040.50;4987648;28;20062;-64
2024/01/29 01:22:02;;;;;;;30.17;22.00;;;;;;;7.91;89.02;102032.81;5005365;28;20061;-63
2024/01/29 01:24:29;;;;;;;29.20;20.65;;;;;;;7.94;88.91;102033.13;5004876;28;20050;-64
2024/01/29 01:26:56;;;;;;;30.25;20.08;;;;;;;7.91;89.00;102027.34;5005859;28;20651;-64
2024/01/29 01:29:24;;;;;;;30.63;20.48;;;;;;;7.98;88.44;102031.47;4988478;28;20049;-63
2024/01/29 01:31:51;;;;;;;30.20;20.00;;;;;;;7.88;89.08;102030.56;5005516;28;20066;-64
2024/01/29 01:34:19;;;;;;;29.48;18.90;;;;;;;7.98;88.93;102041.66;5005817;28;20057;-64
2024/01/29 01:36:46;;;;;;;29.42;19.88;;;;;;;7.90;88.82;102045.69;5000950;28;20046;-64
2024/01/29 01:39:14;;;;;;;31.15;19.58;;;;;;;8.05;88.69;102045.00;4986465;28;20554;-63
2024/01/29 01:41:48;;;;;;;27.10;18.92;;;;;;;8.12;88.54;102042.84;4991255;28;20038;-64
2024/01/29 01:44:15;;;;;;;29.42;19.50;;;;;;;7.97;88.46;102050.94;5037534;28;20064;-64
2024/01/29 01:46:43;;;;;;;28.08;18.50;;;;;;;7.91;89.35;102052.03;5003684;28;20056;-63
2024/01/29 01:49:11;;;;;;;29.88;19.27;;;;;;;7.97;89.65;102056.44;5009004;28;20042;-64
2024/01/29 01:51:39;;;;;;;27.58;17.90;;;;;;;8.12;88.95;102055.72;5008306;28;20787;-65
2024/01/29 01:54:07;;;;;;;24.40;17.27;;;;;;;8.23;88.29;102061.00;5009249;28;20050;-65
2024/01/29 01:56:37;;;;;;;25.35;17.33;;;;;;;8.15;88.40;102050.53;5009248;28;20053;-64
2024/01/29 01:59:07;;;;;;;25.55;18.00;;;;;;;8.05;88.64;102053.22;5009306;28;20045;-64
2024/01/29 02:01:34;;;;;;;28.50;18.33;;;;;;;8.07;88.53;102050.22;5008820;28;20058;-63
2024/01/29 02:04:03;;;;;;;28.20;18.10;;;;;;;8.11;88.51;102051.34;4990505;28;20065;-64
2024/01/29 02:06:31;;;;;;;27.95;17.90;;;;;;;8.12;88.40;102058.47;5008445;28;20053;-64
2024/01/29 02:08:58;;;;;;;27.00;17.67;;;;;;;8.24;87.98;102059.13;5008643;28;20061;-63
2024/01/29 02:11:26;;;;;;;23.30;16.63;;;;;;;8.26;87.67;102060.53;5009291;28;20066;-64
2024/01/29 02:13:53;;;;;;;29.45;19.13;;;;;;;8.12;87.93;102058.47;5009145;28;20060;-64
2024/01/29 02:16:20;;;;;;;27.15;18.25;;;;;;;7.80;89.37;102064.00;5009348;28;20159;-63
2024/01/29 02:18:48;;;;;;;29.30;20.13;;;;;;;7.75;89.93;102061.22;5008655;28;20069;-64
2024/01/29 02:21:15;;;;;;;28.95;19.60;;;;;;;7.62;90.88;102067.13;5009524;28;20065;-63
2024/01/29 02:23:44;;;;;;;30.50;20.17;;;;;;;7.71;90.46;102071.88;5001816;28;20114;-64
2024/01/29 02:26:12;;;;;;;28.65;20.02;;;;;;;7.62;90.65;102072.59;5009611;28;20057;-64
2024/01/29 02:28:40;;;;;;;35.45;21.27;;;;;;;7.58;90.49;102072.28;5007352;28;20053;-64
2024/01/29 02:31:07;;;;;;;30.13;20.95;;;;;;;7.59;90.72;102071.22;5008445;28;20054;-64
2024/01/29 02:33:34;;;;;;;29.13;20.20;;;;;;;7.67;90.52;102078.16;5008119;28;20050;-64
2024/01/29 02:36:02;;;;;;;29.33;20.02;;;;;;;7.61;90.55;102070.97;5005940;28;20069;-65
2024/01/29 02:38:30;;;;;;;29.15;20.00;;;;;;;7.67;90.38;102070.75;5038973;28;20054;-65
2024/01/29 02:40:57;;;;;;;29.63;20.50;;;;;;;7.60;90.89;102067.38;5039076;28;20057;-63
2024/01/29 02:43:24;;;;;;;28.02;20.02;;;;;;;7.69;90.74;102073.22;5007532;28;20054;-63
2024/01/29 02:45:52;;;;;;;31.08;20.30;;;;;;;7.73;90.21;102068.88;5007175;28;20057;-65
2024/01/29 02:48:19;;;;;;;29.35;20.38;;;;;;;7.74;89.88;102074.09;5003458;28;20061;-65
2024/01/29 02:50:48;;;;;;;25.80;18.63;;;;;;;7.60;90.40;102069.31;5003877;28;20049;-66
2024/01/29 02:53:15;;;;;;;32.88;19.67;;;;;;;7.61;90.41;102066.31;5007691;28;20054;-65
2024/01/29 02:55:42;;;;;;;27.48;18.25;;;;;;;7.57;91.05;102072.56;5005913;28;20540;-65
2024/01/29 02:58:09;;;;;;;25.00;18.13;;;;;;;7.56;91.58;102069.03;5006951;28;20065;-63
2024/01/29 03:00:37;;;;;;;27.63;18.58;;;;;;;7.77;91.02;102062.63;5006219;28;20062;-65
2024/01/29 03:03:05;;;;;;;24.65;17.33;;;;;;;7.74;90.96;102067.81;5007991;28;20163;-65
2024/01/29 03:05:32;;;;;;;24.33;17.40;;;;;;;7.59;90.95;102068.50;5010790;28;20058;-64
2024/01/29 03:07:59;;;;;;;26.40;17.98;;;;;;;7.55;91.44;102069.28;5006864;28;20064;-63
2024/01/29 03:10:26;;;;;;;29.20;17.90;;;;;;;7.37;92.90;102065.00;5008489;28;20061;-64
2024/01/29 03:12:56;;;;;;;26.27;16.88;;;;;;;7.26;93.94;102076.94;5007969;28;20041;-64
2024/01/29 03:15:24;;;;;;;25.67;17.63;;;;;;;7.24;94.62;102075.53;5008331;28;20064;-64
2024/01/29 03:17:52;;;;;;;23.58;16.90;;;;;;;7.57;93.69;102067.09;5023369;28;20065;-62
2024/01/29 03:20:19;;;;;;;24.52;16.88;;;;;;;7.45;93.05;102075.47;5004837;28;20049;-65
2024/01/29 03:22:47;;;;;;;25.45;17.15;;;;;;;7.54;92.99;102075.84;5005465;28;20050;-65
2024/01/29 03:25:14;;;;;;;25.23;16.98;;;;;;;7.62;92.26;102069.88;5005726;28;20054;-64
2024/01/29 03:27:41;;;;;;;25.70;17.50;;;;;;;7.52;92.38;102072.53;5007674;28;20065;-65
2024/01/29 03:30:09;;;;;;;24.92;16.27;;;;;;;7.66;92.39;102082.81;5010620;28;20057;-65
2024/01/29 03:32:36;;;;;;;25.17;15.90;;;;;;;7.72;91.49;102084.50;5005336;28;20070;-65
2024/01/29 03:35:04;;;;;;;23.88;17.02;;;;;;;7.73;91.41;102077.94;5002309;28;20058;-65
2024/01/29 03:37:32;;;;;;;26.75;17.02;;;;;;;7.67;91.00;102072.69;5003503;28;20049;-65
2024/01/29 03:39:59;;;;;;;25.10;17.58;;;;;;;7.58;91.42;102071.50;5038699;28;20058;-64
2024/01/29 03:42:26;;;;;;;26.48;17.35;;;;;;;7.72;91.41;102065.28;5007512;28;20551;-63
2024/01/29 03:44:54;;;;;;;22.90;17.13;;;;;;;7.77;90.81;102065.38;5039023;28;20771;-63
2024/01/29 03:47:21;;;;;;;24.75;17.52;;;;;;;7.65;90.46;102067.44;5005635;28;20061;-63
2024/01/29 03:49:48;;;;;;;23.92;16.83;;;;;;;7.72;90.75;102061.75;5007633;28;20501;-63
2024/01/29 03:52:15;;;;;;;24.73;17.00;;;;;;;7.61;90.55;102055.34;5007660;28;20052;-63
2024/01/29 03:54:43;;;;;;;29.48;17.20;;;;;;;7.60;90.88;102058.34;5005258;28;20057;-63
2024/01/29 03:57:10;;;;;;;22.48;16.48;;;;;;;7.59;90.67;102054.78;5007318;28;20064;-64
2024/01/29 03:59:38;;;;;;;26.05;17.83;;;;;;;7.60;91.35;102061.91;5007885;28;20046;-64
2024/01/29 04:02:05;;;;;;;26.10;16.80;;;;;;;7.59;91.06;102059.44;5008658;28;20065;-64
2024/01/29 04:04:33;;;;;;;23.38;16.10;;;;;;;7.51;91.46;102062.66;5004942;28;20069;-63
2024/01/29 04:07:01;;;;;;;23.05;16.40;;;;;;;7.49;91.71;102059.34;5002711;28;20543;-64
2024/01/29 04:09:28;;;;;;;23.35;15.95;;;;;;;7.60;91.76;102061.09;5016566;28;20054;-63
2024/01/29 04:11:56;;;;;;;22.48;15.82;;;;;;;7.38;92.57;102063.91;5024688;28;20440;-64
2024/01/29 04:14:23;;;;;;;23.05;15.60;;;;;;;7.51;92.83;102054.44;5004354;28;20042;-64
2024/01/29 04:16:50;;;;;;;21.98;15.77;;;;;;;7.52;92.47;102051.44;5006038;28;20054;-65
2024/01/29 04:19:18;;;;;;;24.67;15.18;;;;;;;7.45;93.20;102053.56;5005373;28;20058;-64
2024/01/29 04:21:45;;;;;;;23.73;15.32;;;;;;;7.46;93.07;102051.66;5004339;28;20056;-63
2024/01/29 04:24:13;;;;;;;21.23;15.23;;;;;;;7.67;92.78;102050.75;5006154;28;20157;-64
2024/01/29 04:26:41;;;;;;;22.48;15.27;;;;;;;7.38;93.25;102046.63;5004545;28;20053;-64
2024/01/29 04:29:08;;;;;;;22.85;14.43;;;;;;;7.21;94.99;102043.16;5005283;28;20053;-64
2024/01/29 04:31:36;;;;;;;19.83;14.63;;;;;;;7.23;95.79;102046.47;5003963;28;20065;-65
2024/01/29 04:34:03;;;;;;;22.40;14.65;;;;;;;7.23;96.45;102051.97;5004899;28;20058;-64
2024/01/29 04:36:31;;;;;;;19.95;13.68;;;;;;;7.18;96.67;102054.66;5006923;28;20053;-63
2024/01/29 04:38:59;;;;;;;20.05;13.38;;;;;;;7.22;96.66;102069.50;5005368;28;20046;-64
2024/01/29 04:41:26;;;;;;;22.27;13.90;;;;;;;7.26;96.59;102065.97;5005205;28;20940;-63
2024/01/29 04:43:54;;;;;;;21.95;14.23;;;;;;;7.16;96.94;102073.25;5006047;28;20046;-63
2024/01/29 04:46:22;;;;;;;21.02;14.05;;;;;;;7.27;96.94;102075.84;5007302;28;20049;-63
2024/01/29 04:48:50;;;;;;;19.63;13.90;;;;;;;7.33;96.13;102082.19;5007425;28;20592;-63
2024/01/29 04:51:18;;;;;;;20.25;13.68;;;;;;;7.40;95.19;102082.81;5004526;28;20131;-64
2024/01/29 04:53:45;;;;;;;22.75;14.63;;;;;;;7.27;95.42;102073.09;5006706;28;20469;-64
2024/01/29 04:56:12;;;;;;;20.73;13.93;;;;;;;7.41;94.67;102070.78;5006876;28;20049;-63
2024/01/29 04:58:40;;;;;;;21.83;14.30;;;;;;;7.39;93.92;102078.44;5006010;28;20068;-63
2024/01/29 05:01:08;;;;;;;24.15;14.38;;;;;;;7.42;94.29;102077.91;5036995;28;20536;-63
2024/01/29 05:03:36;;;;;;;26.20;14.20;;;;;;;7.57;93.64;102080.78;4993526;28;20512;-64
2024/01/29 05:06:04;;;;;;;20.35;13.18;;;;;;;7.51;93.20;102079.09;5036811;28;20604;-64
2024/01/29 05:08:31;;;;;;;20.88;13.50;;;;;;;7.50;93.64;102080.19;5006280;28;20049;-64
2024/01/29 05:10:58;;;;;;;20.25;13.45;;;;;;;7.48;94.12;102082.38;5014503;28;20081;-64
2024/01/29 05:13:26;;;;;;;17.92;12.57;;;;;;;7.57;93.58;102089.00;5005554;28;20061;-63
2024/01/29 05:15:53;;;;;;;20.25;13.23;;;;;;;7.57;93.16;102083.53;5005869;28;20068;-63
2024/01/29 05:18:21;;;;;;;19.40;13.15;;;;;;;7.52;93.75;102087.06;5006114;28;20045;-65
2024/01/29 05:20:48;;;;;;;22.00;13.35;;;;;;;7.52;93.83;102083.50;5005603;28;20065;-63
2024/01/29 05:23:16;;;;;;;19.25;13.45;;;;;;;7.56;93.45;102087.38;5040025;28;20838;-64
2024/01/29 05:25:44;;;;;;;17.83;12.65;;;;;;;7.49;93.47;102076.63;5010723;28;20041;-64
2024/01/29 05:28:12;;;;;;;19.63;13.13;;;;;;;7.47;93.73;102080.69;5009281;28;20045;-64
2024/01/29 05:30:39;;;;;;;19.40;12.98;;;;;;;7.42;93.86;102086.97;5009843;28;20505;-64
2024/01/29 05:33:06;;;;;;;20.02;12.48;;;;;;;7.47;94.35;102081.53;5009099;28;20062;-60
2024/01/29 05:35:53;;;;;;;19.67;13.13;;;;;;;7.54;93.60;102082.16;5036977;28;20077;-60
2024/01/29 05:38:21;;;;;;;19.48;12.13;;;;;;;7.49;93.57;102078.53;5008035;28;20456;-63
2024/01/29 05:40:48;;;;;;;20.10;12.68;;;;;;;7.52;93.73;102081.59;5008928;28;20057;-60
2024/01/29 05:43:15;;;;;;;20.33;12.35;;;;;;;7.63;92.97;102082.50;5009669;28;20038;-60
2024/01/29 05:45:43;;;;;;;21.08;12.18;;;;;;;7.72;92.98;102084.50;5009902;28;20046;-60
2024/01/29 05:48:10;;;;;;;18.98;12.77;;;;;;;7.60;92.87;102085.78;5007331;28;20453;-62
2024/01/29 05:50:38;;;;;;;19.13;12.13;;;;;;;7.58;93.48;102085.19;4989269;28;20058;-60
2024/01/29 05:53:05;;;;;;;17.27;12.05;;;;;;;7.64;93.19;102086.88;5005200;28;20053;-62
2024/01/29 05:55:33;;;;;;;17.23;12.43;;;;;;;7.64;93.15;102086.88;5008655;28;20088;-60
2024/01/29 05:58:00;;;;;;;18.10;11.57;;;;;;;7.66;93.44;102087.47;5006734;28;20523;-60
2024/01/29 06:00:28;;;;;;;28.40;19.33;;;;;;;7.64;93.32;102089.63;5009249;28;20065;-61
2024/01/29 06:02:55;;;;;;;27.25;17.17;;;;;;;7.63;93.75;102088.00;5009498;28;20049;-62
2024/01/29 06:05:23;;;;;;;20.13;13.38;;;;;;;7.65;94.28;102094.84;5009222;28;20057;-60
2024/01/29 06:07:52;;;;;;;21.77;12.43;;;;;;;7.59;94.75;102090.41;5006932;28;20435;-63
2024/01/29 06:10:19;;;;;;;19.13;11.98;;;;;;;7.61;95.32;102096.47;5007742;28;20054;-61
2024/01/29 06:12:47;;;;;;;16.70;11.50;;;;;;;7.63;94.90;102107.19;5008825;28;20064;-63
2024/01/29 06:15:14;;;;;;;19.20;12.38;;;;;;;7.57;95.71;102110.94;5008407;28;20041;-60
2024/01/29 06:17:42;;;;;;;18.10;11.55;;;;;;;7.61;95.85;102104.72;5008479;28;20220;-62
2024/01/29 06:20:11;;;;;;;20.25;12.07;;;;;;;7.62;95.85;102108.25;5040035;28;20762;-62
2024/01/29 06:22:46;;;;;;;18.35;11.27;;;;;;;7.69;95.87;102111.59;5008898;28;20057;-63
2024/01/29 06:25:13;;;;;;;17.55;10.98;;;;;;;7.51;96.84;102120.22;5007634;28;20056;-61
2024/01/29 06:27:41;;;;;;;16.98;12.13;;;;;;;7.61;97.07;102117.56;5007521;28;20061;-61
2024/01/29 06:30:09;;;;;;;20.95;11.80;;;;;;;7.59;96.87;102120.59;5008343;28;20053;-60
2024/01/29 06:32:36;;;;;;;17.92;11.25;;;;;;;7.66;96.86;102115.72;5008448;28;20065;-61
2024/01/29 06:35:04;;;;;;;16.60;11.10;;;;;;;7.61;95.93;102125.81;5006199;28;20775;-61
2024/01/29 06:37:32;;;;;;;18.20;11.88;;;;;;;7.67;95.82;102125.59;5007067;28;20049;-60
2024/01/29 06:39:59;;;;;;;17.38;12.07;;;;;;;7.68;96.14;102126.41;5007176;28;20100;-60
2024/01/29 06:42:27;;;;;;;15.90;11.38;;;;;;;7.51;95.07;102126.56;5008229;28;20058;-61
2024/01/29 06:44:55;;;;;;;20.17;11.93;;;;;;;7.59;95.89;102137.03;5008656;28;20046;-64
2024/01/29 06:47:23;;;;;;;17.30;11.50;;;;;;;7.57;95.48;102139.19;5009955;28;20080;-64
2024/01/29 06:49:50;;;;;;;18.52;12.68;;;;;;;7.60;95.03;102137.88;5006992;28;20092;-64
2024/01/29 06:52:18;;;;;;;19.63;11.77;;;;;;;7.21;96.33;102136.34;5008069;28;20062;-64
2024/01/29 06:54:45;;;;;;;19.38;11.68;;;;;;;7.27;96.79;102138.06;5008034;28;20046;-64
2024/01/29 06:57:13;;;;;;;17.30;11.45;;;;;;;7.44;96.42;102136.88;5007223;28;20060;-64
2024/01/29 06:59:41;;;;;;;21.58;11.75;;;;;;;7.37;95.52;102146.38;5007592;28;20064;-63
2024/01/29 07:02:08;;;;;;;24.92;11.75;;;;;;;7.36;96.01;102142.81;5007928;28;20057;-65
2024/01/29 07:04:36;;;;;;;22.52;13.38;;;;;;;7.43;95.46;102146.19;5007825;28;20057;-65
2024/01/29 07:07:04;;;;;;;18.38;12.70;;;;;;;7.48;95.17;102151.72;5008210;28;20058;-64
2024/01/29 07:09:31;;;;;;;19.40;12.27;;;;;;;7.34;95.23;102147.72;5005721;28;20763;-64
2024/01/29 07:11:59;;;;;;;19.70;12.07;;;;;;;7.39;95.76;102163.41;5008461;28;20053;-65
2024/01/29 07:14:27;;;;;;;18.80;12.15;;;;;;;7.26;96.16;102155.56;5009586;28;20053;-64
2024/01/29 07:16:55;;;;;;;21.42;11.90;;;;;;;7.55;95.43;102154.28;5007159;28;20053;-63
2024/01/29 07:19:26;;;;;;;19.88;12.10;;;;;;;7.66;94.85;102156.84;5008481;28;20058;-64
2024/01/29 07:21:55;;;;;;;31.25;11.45;;;;;;;7.70;94.20;102165.38;5007548;28;20053;-61
2024/01/29 07:24:22;;;;;;;21.23;12.18;;;;;;;7.66;94.14;102175.22;5007393;28;20042;-61
2024/01/29 07:26:50;;;;;;;19.48;11.30;;;;;;;7.61;94.42;102173.25;5022673;28;20050;-61
2024/01/29 07:29:17;;;;;;;17.73;11.43;;;;;;;7.54;94.35;102180.84;5008182;28;20061;-60
2024/01/29 07:31:46;;;;;;;20.17;12.23;;;;;;;7.48;94.72;102181.88;5006289;28;20058;-61
2024/01/29 07:34:13;;;;;;;19.90;11.55;;;;;;;7.41;95.50;102186.72;5006211;28;20053;-61
2024/01/29 07:36:41;;;;;;;39.70;25.92;;;;;;;7.47;95.81;102184.88;5006173;28;20065;-64
2024/01/29 07:39:12;;;;;;;20.50;12.23;;;;;;;7.50;96.00;102181.59;4988713;28;20054;-64
2024/01/29 07:41:40;;;;;;;17.45;11.05;;;;;;;7.42;96.76;102187.56;5007875;28;20061;-66
2024/01/29 07:44:07;;;;;;;19.02;11.30;;;;;;;7.54;96.29;102193.72;5006348;28;20057;-65
2024/01/29 07:46:35;;;;;;;19.98;11.45;;;;;;;7.44;96.78;102196.38;5006517;28;20543;-59
2024/01/29 07:49:03;;;;;;;22.27;11.52;;;;;;;7.51;96.16;102197.00;5007665;28;20049;-61
2024/01/29 07:51:31;;;;;;;19.00;10.90;;;;;;;7.71;95.85;102192.53;5008066;28;20568;-62
2024/01/29 07:53:59;;;;;;;21.10;10.95;;;;;;;7.64;95.50;102199.31;5007653;28;20057;-55
2024/01/29 07:56:26;;;;;;;22.45;11.50;;;;;;;7.47;95.96;102199.41;5007429;28;20053;-56
2024/01/29 07:58:54;;;;;;;18.90;11.40;;;;;;;7.49;96.40;102202.72;5021845;28;20049;-55
2024/01/29 08:01:21;;;;;;;17.85;10.38;;;;;;;7.54;98.03;102211.00;5005738;28;20042;-56
2024/01/29 08:03:49;;;;;;;30.55;11.82;;;;;;;7.63;96.80;102206.72;5004651;28;20050;-54
2024/01/29 08:06:16;;;;;;;16.67;10.77;;;;;;;7.37;96.57;102213.00;5003162;28;20474;-58
2024/01/29 08:08:44;;;;;;;17.83;11.05;;;;;;;7.51;97.26;102206.06;5000490;28;20069;-54
2024/01/29 08:11:14;;;;;;;16.92;10.80;;;;;;;8.08;100.00;102206.34;5008814;28;20087;-56
2024/01/29 08:13:44;;;;;;;20.83;11.00;;;;;;;8.08;98.27;102208.25;5023422;28;20050;-57
2024/01/29 08:16:11;;;;;;;17.85;11.20;;;;;;;7.81;95.65;102208.28;5014264;28;20045;-56
2024/01/29 08:18:38;;;;;;;19.08;10.75;;;;;;;7.83;95.38;102209.69;5011596;28;20050;-57
2024/01/29 08:21:06;;;;;;;19.27;11.00;;;;;;;7.95;94.27;102215.00;5009124;28;20084;-58
2024/01/29 08:23:33;;;;;;;23.55;10.52;;;;;;;7.89;94.77;102205.91;5007263;28;20057;-53
2024/01/29 08:26:00;;;;;;;18.60;11.15;;;;;;;7.92;94.85;102212.78;5008463;28;20382;-62
2024/01/29 08:28:28;;;;;;;19.70;11.60;;;;;;;7.94;94.68;102205.13;5009913;28;20057;-62
2024/01/29 08:30:58;;;;;;;29.60;11.48;;;;;;;8.00;94.45;102210.38;5009029;28;20046;-64
2024/01/29 08:33:27;;;;;;;23.88;11.57;;;;;;;8.11;93.68;102205.03;5014005;28;20074;-62
2024/01/29 08:35:55;;;;;;;18.02;10.80;;;;;;;8.02;94.00;102220.28;5010972;28;20046;-63
2024/01/29 08:38:23;;;;;;;21.10;11.00;;;;;;;8.25;93.70;102209.81;5005691;28;20054;-63
2024/01/29 08:40:51;;;;;;;18.65;11.05;;;;;;;8.05;93.57;102214.28;5009132;28;20060;-62
2024/01/29 08:43:19;;;;;;;23.15;11.70;;;;;;;8.11;94.12;102214.06;5001716;28;20058;-51
2024/01/29 08:45:46;;;;;;;21.20;11.30;;;;;;;8.15;94.22;102209.72;5021826;28;20050;-57
2024/01/29 08:48:14;;;;;;;20.45;11.27;;;;;;;8.21;94.17;102214.13;5008591;28;20502;-58
2024/01/29 08:50:41;;;;;;;22.35;12.32;;;;;;;8.36;93.64;102219.81;5014375;28;20076;-56
2024/01/29 08:53:09;;;;;;;18.63;11.70;;;;;;;8.48;93.24;102203.97;5012977;28;20064;-56
2024/01/29 08:55:37;;;;;;;23.08;12.02;;;;;;;8.54;92.68;102208.41;5010751;28;20061;-53
2024/01/29 08:58:04;;;;;;;21.27;11.90;;;;;;;8.59;92.03;102213.97;5006791;28;20057;-56
2024/01/29 09:00:32;;;;;;;24.83;11.30;;;;;;;8.58;92.31;102214.19;5011984;28;20046;-61
2024/01/29 09:03:00;;;;;;;21.67;11.55;;;;;;;8.77;91.80;102210.75;5011405;28;20057;-61
2024/01/29 09:05:27;;;;;;;18.67;11.73;;;;;;;8.82;91.72;102210.78;5010893;28;20054;-61
2024/01/29 09:07:54;;;;;;;19.70;11.93;;;;;;;8.82;91.15;102215.47;5008013;28;20068;-63
2024/01/29 09:10:26;;;;;;;26.25;13.70;;;;;;;8.86;91.81;102211.09;5008140;28;20062;-62
2024/01/29 09:12:53;;;;;;;20.35;11.60;;;;;;;8.89;91.60;102200.41;5007716;28;20426;-63
2024/01/29 09:15:20;;;;;;;22.08;11.35;;;;;;;8.93;91.43;102212.50;5003711;28;20556;-61
2024/01/29 09:17:48;;;;;;;17.00;10.90;;;;;;;8.93;91.08;102200.69;5003355;28;20046;-62
2024/01/29 09:20:16;;;;;;;21.40;11.02;;;;;;;9.03;91.04;102212.56;5013692;28;20673;-61
2024/01/29 09:22:43;;;;;;;18.10;10.80;;;;;;;9.16;90.20;102218.66;4998911;28;20520;-62
2024/01/29 09:25:12;;;;;;;19.85;11.52;;;;;;;9.18;89.97;102209.06;4996759;28;20077;-62
2024/01/29 09:27:40;;;;;;;24.27;11.17;;;;;;;9.17;89.69;102212.09;5012775;28;20053;-63
2024/01/29 09:30:08;;;;;;;17.02;11.35;;;;;;;9.34;89.65;102213.56;5016112;28;20802;-61
2024/01/29 09:32:35;;;;;;;19.50;11.45;;;;;;;9.30;88.96;102215.19;5019434;28;20062;-62
2024/01/29 09:35:04;;;;;;;20.15;11.32;;;;;;;9.32;89.21;102214.91;5002805;28;20070;-62
2024/01/29 09:37:31;;;;;;;17.65;11.88;;;;;;;9.29;89.14;102219.03;5006107;28;20053;-62
2024/01/29 09:39:59;;;;;;;22.73;11.48;;;;;;;9.41;89.14;102219.63;4995242;28;20049;-63
2024/01/29 09:42:29;;;;;;;18.42;11.02;;;;;;;9.34;89.48;102223.72;5025270;28;20062;-63
2024/01/29 09:44:59;;;;;;;21.98;11.43;;;;;;;9.30;90.22;102222.59;5009738;28;20508;-63
2024/01/29 09:47:27;;;;;;;17.92;11.30;;;;;;;9.56;89.67;102227.09;5016350;28;20417;-63
2024/01/29 09:50:02;;;;;;;20.85;12.57;;;;;;;9.67;88.99;102229.63;5041222;28;20060;-62
2024/01/29 09:52:35;;;;;;;20.27;12.13;;;;;;;9.70;88.10;102239.25;5007282;28;20054;-63
2024/01/29 09:55:05;;;;;;;18.55;12.02;;;;;;;9.70;87.96;102231.81;5034690;28;20184;-63
2024/01/29 09:57:34;;;;;;;22.30;11.25;;;;;;;9.76;87.97;102233.47;5005873;28;20050;-63
2024/01/29 10:00:01;;;;;;;20.02;11.38;;;;;;;9.66;87.91;102232.66;5009299;28;20053;-63
2024/01/29 10:02:36;;;;;;;20.98;11.43;;;;;;;9.73;87.91;102230.44;5009489;28;20053;-64
2024/01/29 10:05:11;;;;;;;22.60;11.80;;;;;;;9.68;88.00;102234.00;5005373;28;20061;-63
2024/01/29 10:07:40;;;;;;;20.73;12.95;;;;;;;9.38;89.58;102233.91;5003816;28;20434;-63
2024/01/29 10:10:09;;;;;;;21.00;12.20;;;;;;;9.64;89.70;102234.84;5013904;28;20053;-53
2024/01/29 10:12:37;;;;;;;22.20;12.48;;;;;;;9.81;88.73;102236.28;5013244;28;20054;-56
2024/01/29 10:15:05;;;;;;;19.95;12.07;;;;;;;9.90;88.33;102226.34;5006776;28;20389;-64
2024/01/29 10:17:33;;;;;;;21.55;11.27;;;;;;;10.05;87.10;102220.91;5016899;28;20041;-67
2024/01/29 10:20:00;;;;;;;19.45;12.55;;;;;;;10.14;86.72;102222.03;5011743;28;20053;-64
2024/01/29 10:22:28;;;;;;;21.70;11.77;;;;;;;10.06;87.06;102221.69;5021023;28;20050;-58
2024/01/29 10:25:02;;;;;;;21.75;12.18;;;;;;;9.91;87.34;102219.78;5012887;28;20153;-54
2024/01/29 10:27:31;;;;;;;22.17;12.50;;;;;;;9.99;87.77;102221.97;5014790;28;20054;-54
2024/01/29 10:29:59;;;;;;;20.63;12.95;;;;;;;10.18;87.08;102225.88;5018977;28;20042;-56
2024/01/29 10:32:26;;;;;;;17.50;12.05;;;;;;;10.09;87.41;102224.78;5016609;28;20070;-52
2024/01/29 10:34:53;;;;;;;27.48;12.85;;;;;;;10.19;87.27;102219.28;5011636;28;20137;-57
2024/01/29 10:37:21;;;;;;;18.02;12.55;;;;;;;10.37;87.10;102217.94;5041562;28;20120;-54
2024/01/29 10:39:48;;;;;;;18.98;12.85;;;;;;;10.42;86.55;102211.56;5012528;28;20049;-53
2024/01/29 10:42:29;;;;;;;20.38;12.98;;;;;;;10.62;86.38;102211.53;5008244;28;20054;-66
2024/01/29 10:45:05;;;;;;;20.40;12.45;;;;;;;10.61;86.01;102209.91;5029924;28;20060;-66
2024/01/29 10:47:47;;;;;;;19.58;12.57;;;;;;;10.56;86.43;102210.75;5010855;28;20030;-56
2024/01/29 10:50:18;;;;;;;20.42;12.18;;;;;;;11.12;90.09;102211.47;5003625;28;20050;-57
2024/01/29 10:52:47;;;;;;;20.45;12.10;;;;;;;10.92;85.47;102215.09;5009297;28;20045;-63
2024/01/29 10:55:15;;;;;;;22.85;12.80;;;;;;;11.05;85.16;102211.72;5017546;28;20457;-62
2024/01/29 10:57:46;;;;;;;22.50;12.80;;;;;;;11.21;84.73;102207.81;5017368;28;20057;-62
2024/01/29 11:00:17;;;;;;;22.98;13.02;;;;;;;11.25;83.93;102208.09;5012868;28;20049;-62
2024/01/29 11:02:45;;;;;;;18.63;12.63;;;;;;;11.15;83.60;102205.38;5042018;28;20053;-63
2024/01/29 11:05:13;;;;;;;23.20;11.77;;;;;;;10.82;84.46;102204.09;5009243;28;20050;-64
2024/01/29 11:07:43;;;;;;;21.70;12.45;;;;;;;11.00;85.05;102199.91;5011128;28;20053;-61
2024/01/29 11:10:19;;;;;;;17.95;11.38;;;;;;;10.92;85.17;102195.78;5009033;28;20057;-62
2024/01/29 11:12:49;;;;;;;18.40;11.20;;;;;;;11.00;84.91;102197.16;5001804;28;20058;-63
2024/01/29 11:15:16;;;;;;;20.88;11.68;;;;;;;11.14;84.57;102192.72;4992215;28;20053;-62
2024/01/29 11:17:44;;;;;;;21.58;11.80;;;;;;;10.87;85.42;102181.19;5025898;28;20054;-63
2024/01/29 11:20:14;;;;;;;19.73;12.15;;;;;;;11.10;85.41;102184.16;5008867;28;20049;-62